Time;durP1;ratioP1;P1;durP2;ratioP2;P2;SDS_P1;SDS_P2;PMS_P1;PMS_P2;Temp;Humidity;BMP_temperature;BMP_pressure;BME280_temperature;BME280_humidity;BME280_pressure;Samples;Min_cycle;Max_cycle;Signal;HPM_P1;HPM_P2
2021/03/16 00:00:06;;;;;;;18.25;3.90;;;15.00;56.60;;;;;;4882022;29;20045;-72
2021/03/16 00:02:32;;;;;;;15.05;3.38;;;15.00;56.70;;;;;;4869269;29;20048;-76
2021/03/16 00:04:58;;;;;;;17.75;3.13;;;15.00;56.30;;;;;;4862930;29;20046;-74
2021/03/16 00:07:24;;;;;;;15.80;3.13;;;15.00;56.30;;;;;;4862806;29;20045;-74
2021/03/16 00:09:50;;;;;;;11.90;3.10;;;15.00;56.40;;;;;;4876237;29;20105;-74
2021/03/16 00:12:16;;;;;;;15.90;3.42;;;15.00;56.10;;;;;;4879416;29;20049;-74
2021/03/16 00:14:42;;;;;;;10.02;3.05;;;15.00;56.30;;;;;;4881629;29;20104;-73
2021/03/16 00:17:08;;;;;;;17.52;4.18;;;15.00;56.10;;;;;;4881501;29;20105;-74
2021/03/16 00:19:34;;;;;;;12.63;3.00;;;14.90;56.20;;;;;;4881469;29;20094;-73
2021/03/16 00:22:01;;;;;;;16.50;3.30;;;15.00;56.10;;;;;;4879563;29;20075;-72
2021/03/16 00:24:27;;;;;;;13.35;3.55;;;15.00;56.10;;;;;;4866800;29;20049;-74
2021/03/16 00:26:52;;;;;;;18.33;3.35;;;15.00;56.10;;;;;;4862818;29;20360;-74
2021/03/16 00:29:18;;;;;;;14.05;3.42;;;14.90;56.10;;;;;;4863191;29;20482;-72
2021/03/16 00:31:44;;;;;;;14.15;3.22;;;14.90;56.10;;;;;;4862877;29;20445;-74
2021/03/16 00:34:10;;;;;;;17.75;3.75;;;14.90;56.10;;;;;;4863395;29;20128;-72
2021/03/16 00:36:36;;;;;;;14.90;3.20;;;14.90;56.40;;;;;;4879783;29;20393;-72
2021/03/16 00:39:03;;;;;;;16.20;3.45;;;14.90;57.00;;;;;;4881043;29;20056;-74
2021/03/16 00:41:29;;;;;;;12.10;3.10;;;14.90;56.10;;;;;;4881340;29;20045;-74
2021/03/16 00:43:55;;;;;;;11.70;3.28;;;14.90;56.50;;;;;;4881506;29;20084;-73
2021/03/16 00:46:21;;;;;;;16.77;3.00;;;14.90;56.50;;;;;;4878075;29;20489;-74
2021/03/16 00:48:47;;;;;;;15.95;3.15;;;14.90;56.60;;;;;;4874744;29;20136;-73
2021/03/16 00:51:13;;;;;;;13.40;3.63;;;14.80;56.30;;;;;;4879881;29;20118;-74
2021/03/16 00:53:38;;;;;;;13.05;2.85;;;14.80;56.60;;;;;;4880868;29;20049;-73
2021/03/16 00:56:05;;;;;;;13.43;3.78;;;14.80;56.40;;;;;;4886464;29;20056;-72
2021/03/16 00:58:31;;;;;;;12.35;2.63;;;14.80;56.20;;;;;;4895761;29;20049;-72
2021/03/16 01:00:58;;;;;;;17.10;3.45;;;14.80;56.10;;;;;;4881763;29;20045;-73
2021/03/16 01:03:24;;;;;;;14.10;3.08;;;14.80;56.30;;;;;;4880739;29;20445;-73
2021/03/16 01:05:51;;;;;;;13.65;3.00;;;14.70;56.40;;;;;;4884186;29;20448;-74
2021/03/16 01:08:19;;;;;;;19.50;3.28;;;14.80;56.40;;;;;;4885728;29;20081;-73
2021/03/16 01:10:46;;;;;;;10.65;2.60;;;14.80;56.30;;;;;;4884479;29;20044;-75
2021/03/16 01:13:12;;;;;;;12.80;2.60;;;14.80;56.60;;;;;;4889626;29;20123;-73
2021/03/16 01:15:39;;;;;;;11.98;2.70;;;14.70;56.20;;;;;;4903425;29;20044;-75
2021/03/16 01:18:04;;;;;;;11.93;2.95;;;14.70;55.90;;;;;;4902959;29;20095;-74
2021/03/16 01:20:32;;;;;;;9.85;2.60;;;14.70;56.10;;;;;;4884604;29;20446;-74
2021/03/16 01:22:58;;;;;;;12.75;3.17;;;14.70;55.80;;;;;;4885563;29;20045;-73
2021/03/16 01:25:24;;;;;;;11.57;3.42;;;14.70;55.70;;;;;;4884688;29;20107;-72
2021/03/16 01:27:50;;;;;;;10.00;2.28;;;14.70;55.50;;;;;;4884580;29;20067;-73
2021/03/16 01:30:17;;;;;;;14.52;2.83;;;14.70;56.00;;;;;;4885351;29;20041;-73
2021/03/16 01:32:45;;;;;;;12.13;2.88;;;14.70;56.20;;;;;;4884186;29;20052;-75
2021/03/16 01:35:13;;;;;;;12.68;3.33;;;14.70;56.40;;;;;;4884335;29;20124;-73
2021/03/16 01:37:39;;;;;;;10.50;2.22;;;14.70;56.40;;;;;;4884767;29;20341;-73
2021/03/16 01:40:14;;;;;;;14.70;2.92;;;14.70;56.20;;;;;;4884016;29;20048;-74
2021/03/16 01:42:41;;;;;;;15.98;3.67;;;14.60;56.20;;;;;;4884347;29;20041;-73
2021/03/16 01:45:15;;;;;;;16.20;3.55;;;14.70;56.20;;;;;;4884313;29;20055;-73
2021/03/16 01:47:46;;;;;;;13.13;3.13;;;14.70;56.10;;;;;;4889689;29;20040;-75
2021/03/16 01:50:15;;;;;;;12.63;2.67;;;14.60;55.90;;;;;;4900808;29;20138;-73
2021/03/16 01:52:42;;;;;;;11.40;2.97;;;14.70;56.30;;;;;;4900710;29;20041;-73
2021/03/16 01:55:09;;;;;;;10.45;2.28;;;14.60;56.40;;;;;;4902862;29;20044;-73
2021/03/16 01:57:37;;;;;;;13.13;2.90;;;14.60;56.20;;;;;;4902375;29;20088;-72
2021/03/16 02:00:05;;;;;;;14.63;3.15;;;14.60;56.20;;;;;;4902938;29;20081;-73
2021/03/16 02:02:32;;;;;;;12.52;2.63;;;14.60;56.30;;;;;;4902756;29;20437;-73
2021/03/16 02:04:57;;;;;;;11.68;2.50;;;14.60;56.10;;;;;;4895411;29;20104;-72
2021/03/16 02:07:33;;;;;;;10.85;2.20;;;14.60;55.90;;;;;;4884558;29;20048;-74
2021/03/16 02:10:12;;;;;;;12.52;2.25;;;14.60;56.50;;;;;;4883857;29;20362;-72
2021/03/16 02:12:44;;;;;;;15.02;2.53;;;14.60;56.00;;;;;;4897145;29;20040;-75
2021/03/16 02:15:34;;;;;;;12.18;2.55;;;14.60;55.80;;;;;;4885070;29;20053;-74
2021/03/16 02:18:06;;;;;;;8.27;2.38;;;14.50;56.10;;;;;;4887911;29;20048;-74
2021/03/16 02:21:13;;;;;;;9.40;2.45;;;14.50;56.00;;;;;;4883637;29;20060;-73
2021/03/16 02:23:54;;;;;;;13.82;2.97;;;14.50;56.20;;;;;;4869575;29;20048;-74
2021/03/16 02:27:04;;;;;;;11.25;2.42;;;14.60;56.20;;;;;;4900663;29;20143;-73
2021/03/16 02:29:41;;;;;;;9.73;2.55;;;14.50;55.70;;;;;;4901929;29;20075;-73
2021/03/16 02:32:13;;;;;;;12.45;2.50;;;14.50;55.70;;;;;;4890180;29;20077;-73
2021/03/16 02:34:40;;;;;;;14.23;2.38;;;14.50;55.70;;;;;;4884290;29;20070;-74
2021/03/16 02:37:09;;;;;;;10.93;1.92;;;14.50;55.70;;;;;;4883178;29;20112;-73
2021/03/16 02:39:36;;;;;;;10.23;2.78;;;14.50;55.60;;;;;;4883125;29;20044;-73
2021/03/16 02:42:04;;;;;;;11.18;2.95;;;14.50;55.70;;;;;;4883294;29;20068;-74
2021/03/16 02:44:31;;;;;;;11.93;2.35;;;14.50;55.70;;;;;;4883085;29;20307;-75
2021/03/16 02:46:57;;;;;;;8.57;1.95;;;14.50;55.60;;;;;;4883688;29;20041;-76
2021/03/16 02:49:24;;;;;;;12.93;2.85;;;14.50;55.40;;;;;;4899220;29;20044;-74
2021/03/16 02:51:52;;;;;;;11.48;2.65;;;14.50;55.50;;;;;;4888160;29;20409;-72
2021/03/16 02:54:19;;;;;;;10.73;2.30;;;14.40;55.40;;;;;;4882598;29;20444;-73
2021/03/16 02:56:48;;;;;;;8.80;2.10;;;14.40;56.00;;;;;;4882541;29;20053;-72
2021/03/16 02:59:16;;;;;;;12.18;2.10;;;14.40;55.40;;;;;;4895800;29;20527;-74
2021/03/16 03:01:44;;;;;;;12.73;2.50;;;14.50;55.60;;;;;;4901494;29;20471;-73
2021/03/16 03:04:11;;;;;;;8.98;2.03;;;14.40;55.70;;;;;;4899679;29;20133;-74
2021/03/16 03:06:42;;;;;;;11.02;2.97;;;14.40;55.70;;;;;;4901008;29;20079;-75
2021/03/16 03:09:11;;;;;;;15.65;2.50;;;14.40;55.40;;;;;;4901132;29;20092;-73
2021/03/16 03:11:38;;;;;;;10.30;2.33;;;14.40;55.50;;;;;;4901029;29;20040;-73
2021/03/16 03:14:05;;;;;;;12.32;2.15;;;14.40;55.60;;;;;;4901687;29;20048;-74
2021/03/16 03:16:31;;;;;;;10.73;2.38;;;14.40;55.70;;;;;;4901087;29;20452;-73
2021/03/16 03:18:58;;;;;;;12.52;2.40;;;14.30;55.40;;;;;;4900891;29;20108;-74
2021/03/16 03:21:47;;;;;;;9.07;2.42;;;14.30;55.50;;;;;;4897195;29;20112;-73
2021/03/16 03:24:20;;;;;;;10.93;2.08;;;14.40;55.60;;;;;;4881025;29;20056;-73
2021/03/16 03:27:06;;;;;;;9.48;2.60;;;14.30;55.60;;;;;;4901497;29;20048;-73
2021/03/16 03:29:33;;;;;;;12.60;2.65;;;14.30;55.40;;;;;;4898870;29;20104;-74
2021/03/16 03:32:00;;;;;;;13.52;2.53;;;14.30;55.50;;;;;;4900760;29;20116;-73
2021/03/16 03:34:27;;;;;;;11.75;2.50;;;14.30;55.50;;;;;;4896686;29;20113;-73
2021/03/16 03:36:57;;;;;;;9.00;1.80;;;14.30;55.50;;;;;;4881653;29;20370;-73
2021/03/16 03:39:25;;;;;;;14.15;3.00;;;14.30;55.60;;;;;;4881948;29;20128;-73
2021/03/16 03:41:52;;;;;;;7.53;2.70;;;14.30;55.60;;;;;;4882451;29;20357;-72
2021/03/16 03:44:21;;;;;;;11.27;2.10;;;14.30;55.60;;;;;;4882561;29;20041;-73
2021/03/16 03:46:48;;;;;;;13.77;2.50;;;14.30;55.70;;;;;;4882113;29;20041;-72
2021/03/16 03:49:16;;;;;;;14.05;2.47;;;14.30;55.60;;;;;;4899443;29;20064;-75
2021/03/16 03:51:43;;;;;;;8.73;2.30;;;14.30;55.70;;;;;;4882986;29;20135;-75
2021/03/16 03:54:10;;;;;;;11.00;1.92;;;14.30;55.60;;;;;;4881873;29;20116;-75
2021/03/16 03:56:38;;;;;;;12.45;2.65;;;14.20;55.50;;;;;;4881658;29;20057;-73
2021/03/16 03:59:05;;;;;;;13.02;2.47;;;14.30;55.70;;;;;;4881972;29;20123;-73
2021/03/16 04:01:32;;;;;;;11.30;2.50;;;14.20;55.70;;;;;;4886554;29;20063;-72
2021/03/16 04:04:00;;;;;;;11.45;2.70;;;14.20;55.50;;;;;;4901065;29;20040;-73
2021/03/16 04:06:26;;;;;;;10.85;2.55;;;14.20;55.50;;;;;;4900698;29;20340;-73
2021/03/16 04:08:53;;;;;;;13.10;2.47;;;14.20;55.70;;;;;;4898487;29;20056;-74
2021/03/16 04:11:23;;;;;;;9.13;2.20;;;14.20;55.80;;;;;;4900406;29;20423;-72
2021/03/16 04:13:51;;;;;;;12.68;2.15;;;14.20;55.60;;;;;;4889989;29;20087;-74
2021/03/16 04:16:18;;;;;;;11.15;2.10;;;14.10;55.60;;;;;;4883688;29;20072;-72
2021/03/16 04:18:48;;;;;;;10.75;2.65;;;14.20;55.60;;;;;;4900202;29;20040;-73
2021/03/16 04:21:15;;;;;;;10.82;1.92;;;14.20;55.60;;;;;;4899617;29;20404;-73
2021/03/16 04:23:42;;;;;;;10.00;1.85;;;14.10;55.70;;;;;;4882444;29;20128;-73
2021/03/16 04:26:08;;;;;;;10.02;2.45;;;14.10;55.80;;;;;;4881397;29;20044;-75
2021/03/16 04:28:34;;;;;;;9.05;2.15;;;14.10;55.60;;;;;;4881457;29;20053;-74
2021/03/16 04:30:59;;;;;;;12.02;2.20;;;14.10;55.80;;;;;;4894724;29;20050;-73
2021/03/16 04:33:25;;;;;;;10.02;2.38;;;14.10;55.90;;;;;;4898954;29;20370;-73
2021/03/16 04:35:51;;;;;;;11.43;2.65;;;14.10;55.80;;;;;;4898460;29;20377;-74
2021/03/16 04:38:17;;;;;;;10.32;3.15;;;14.10;55.70;;;;;;4880637;29;20453;-73
2021/03/16 04:40:44;;;;;;;11.45;2.28;;;14.10;55.80;;;;;;4884403;29;20061;-73
2021/03/16 04:43:11;;;;;;;16.50;2.90;;;14.10;55.90;;;;;;4887559;29;20059;-75
2021/03/16 04:45:37;;;;;;;10.40;2.88;;;14.10;55.90;;;;;;4904194;29;20048;-72
2021/03/16 04:48:04;;;;;;;16.45;3.03;;;14.20;55.80;;;;;;4903788;29;20079;-73
2021/03/16 04:50:30;;;;;;;12.30;2.95;;;14.10;55.80;;;;;;4904100;29;20100;-75
2021/03/16 04:52:57;;;;;;;9.30;2.33;;;14.10;55.90;;;;;;4885869;29;20108;-74
2021/03/16 04:55:23;;;;;;;11.88;2.30;;;14.10;55.70;;;;;;4884817;29;20075;-75
2021/03/16 04:57:49;;;;;;;11.45;2.22;;;14.10;55.70;;;;;;4885319;29;20048;-73
2021/03/16 05:00:16;;;;;;;12.27;3.10;;;14.10;55.70;;;;;;4884788;29;20075;-74
2021/03/16 05:02:42;;;;;;;15.57;2.85;;;14.10;55.90;;;;;;4889305;29;20047;-72
2021/03/16 05:05:08;;;;;;;11.25;2.83;;;14.10;56.10;;;;;;4900355;29;20051;-73
2021/03/16 05:07:34;;;;;;;14.68;2.72;;;14.10;55.70;;;;;;4903296;29;20051;-75
2021/03/16 05:10:00;;;;;;;10.68;2.38;;;14.10;55.70;;;;;;4901362;29;20095;-72
2021/03/16 05:12:27;;;;;;;8.98;2.55;;;14.00;55.60;;;;;;4885856;29;20122;-73
2021/03/16 05:14:54;;;;;;;13.10;2.50;;;14.10;55.70;;;;;;4884996;29;20044;-73
2021/03/16 05:17:20;;;;;;;8.27;1.75;;;14.10;55.70;;;;;;4884939;29;20116;-72
2021/03/16 05:19:45;;;;;;;11.80;2.10;;;14.00;55.80;;;;;;4885457;29;20412;-72
2021/03/16 05:22:11;;;;;;;13.68;2.42;;;14.00;55.60;;;;;;4868470;29;20056;-73
2021/03/16 05:24:37;;;;;;;15.63;3.03;;;14.00;55.60;;;;;;4884040;29;20132;-72
2021/03/16 05:27:03;;;;;;;8.95;2.42;;;14.00;55.60;;;;;;4885354;29;20097;-73
2021/03/16 05:29:29;;;;;;;10.93;2.13;;;14.00;55.70;;;;;;4884508;29;20049;-73
2021/03/16 05:31:55;;;;;;;9.20;2.13;;;14.00;55.50;;;;;;4892696;29;20139;-71
2021/03/16 05:34:21;;;;;;;8.27;1.92;;;14.00;55.50;;;;;;4884487;29;20121;-74
2021/03/16 05:36:48;;;;;;;6.30;1.92;;;14.00;55.50;;;;;;4885842;29;20064;-75
2021/03/16 05:39:16;;;;;;;8.88;2.00;;;14.00;55.70;;;;;;4902945;29;20052;-74
2021/03/16 05:41:42;;;;;;;8.13;1.80;;;14.00;55.50;;;;;;4901254;29;20404;-76
2021/03/16 05:44:08;;;;;;;8.20;1.42;;;14.00;55.60;;;;;;4902881;29;20060;-78
2021/03/16 05:46:37;;;;;;;8.68;2.00;;;14.00;56.10;;;;;;4903053;29;20436;-76
2021/03/16 05:49:06;;;;;;;8.15;1.80;;;14.10;56.10;;;;;;4882091;29;20061;-76
2021/03/16 05:51:33;;;;;;;11.15;1.73;;;14.10;56.00;;;;;;4884063;29;20101;-76
2021/03/16 05:54:04;;;;;;;10.45;2.15;;;14.30;56.30;;;;;;4884141;29;20037;-75
2021/03/16 05:56:34;;;;;;;8.32;1.75;;;14.40;56.40;;;;;;4883771;29;20417;-75
2021/03/16 05:59:02;;;;;;;10.95;1.75;;;14.50;56.20;;;;;;4884179;29;20063;-76
2021/03/16 06:01:28;;;;;;;10.82;2.22;;;14.70;56.40;;;;;;4888908;29;20072;-74
2021/03/16 06:03:53;;;;;;;9.85;1.70;;;14.90;56.00;;;;;;4898092;29;20044;-74
2021/03/16 06:06:31;;;;;;;6.55;1.55;;;15.10;55.90;;;;;;4886128;29;20157;-79
2021/03/16 06:08:58;;;;;;;6.95;1.52;;;15.30;56.30;;;;;;4882258;29;20041;-76
2021/03/16 06:11:28;;;;;;;10.57;2.00;;;15.40;56.30;;;;;;4894820;29;20040;-77
2021/03/16 06:13:56;;;;;;;9.80;2.38;;;15.60;56.70;;;;;;4901911;29;20464;-74
2021/03/16 06:16:25;;;;;;;15.27;2.00;;;15.70;56.70;;;;;;4901526;29;20068;-73
2021/03/16 06:18:51;;;;;;;12.27;2.53;;;15.90;56.80;;;;;;4884440;29;20127;-76
2021/03/16 06:21:19;;;;;;;9.57;1.80;;;16.00;57.10;;;;;;4900931;29;20124;-76
2021/03/16 06:23:56;;;;;;;10.45;2.20;;;16.10;57.30;;;;;;4902257;29;20440;-76
2021/03/16 06:26:27;;;;;;;18.10;2.42;;;16.20;57.80;;;;;;4902386;29;20051;-75
2021/03/16 06:29:07;;;;;;;14.80;2.63;;;16.20;57.90;;;;;;4901996;29;20048;-78
2021/03/16 06:31:33;;;;;;;12.13;2.20;;;16.30;58.60;;;;;;4893851;29;20097;-74
2021/03/16 06:33:59;;;;;;;11.35;1.50;;;16.40;58.70;;;;;;4885196;29;20037;-74
2021/03/16 06:36:27;;;;;;;11.85;1.90;;;16.50;59.10;;;;;;4902011;29;20041;-74
2021/03/16 06:38:53;;;;;;;9.30;2.10;;;16.60;59.40;;;;;;4901975;29;20119;-76
2021/03/16 06:41:21;;;;;;;10.45;1.70;;;16.60;59.30;;;;;;4901931;29;20397;-77
2021/03/16 06:43:58;;;;;;;9.93;1.83;;;16.70;59.40;;;;;;4885040;29;20040;-76
2021/03/16 06:46:37;;;;;;;7.75;1.55;;;16.80;59.70;;;;;;4881648;29;20069;-83
2021/03/16 06:49:14;;;;;;;10.32;1.70;;;16.90;59.50;;;;;;4883498;29;20132;-74
2021/03/16 06:51:40;;;;;;;6.45;1.40;;;17.00;59.40;;;;;;4883613;29;20390;-73
2021/03/16 06:54:14;;;;;;;8.93;1.83;;;17.00;59.00;;;;;;4883458;29;20064;-78
2021/03/16 06:56:40;;;;;;;;;;;17.10;59.00;;;;;;4883229;29;20521;-76
2021/03/16 06:59:07;;;;;;;11.52;1.52;;;17.10;59.00;;;;;;4882893;29;19927;-74
2021/03/16 07:01:33;;;;;;;11.25;1.90;;;17.20;58.90;;;;;;4889999;29;20100;-72
2021/03/16 07:04:11;;;;;;;15.88;2.78;;;17.20;59.10;;;;;;4899372;29;20040;-77
2021/03/16 07:06:39;;;;;;;14.52;2.13;;;17.30;59.30;;;;;;4876321;29;20049;-72
2021/03/16 07:09:05;;;;;;;13.60;1.88;;;17.30;58.40;;;;;;4882349;29;20472;-74
2021/03/16 07:11:35;;;;;;;15.07;2.20;;;17.30;58.10;;;;;;4882259;29;20041;-75
2021/03/16 07:14:06;;;;;;;12.32;1.65;;;17.30;57.90;;;;;;4882484;29;20055;-75
2021/03/16 07:16:36;;;;;;;8.23;1.35;;;17.30;57.60;;;;;;4896386;29;20064;-75
2021/03/16 07:19:06;;;;;;;12.77;1.88;;;17.30;57.60;;;;;;4882363;29;20056;-77
2021/03/16 07:21:53;;;;;;;9.75;1.92;;;17.20;57.50;;;;;;4882493;29;20124;-75
2021/03/16 07:24:22;;;;;;;12.52;1.80;;;17.20;57.30;;;;;;4882688;29;20048;-75
2021/03/16 07:26:48;;;;;;;9.10;1.63;;;17.20;57.40;;;;;;4883387;29;20040;-76
2021/03/16 07:29:20;;;;;;;6.93;2.05;;;17.20;57.50;;;;;;4881951;29;20120;-76
2021/03/16 07:31:49;;;;;;;9.25;1.92;;;17.10;57.60;;;;;;4890517;29;20111;-77
2021/03/16 07:34:19;;;;;;;9.38;1.35;;;17.10;57.70;;;;;;4898028;29;20045;-75
2021/03/16 07:36:46;;;;;;;10.40;1.70;;;17.00;57.50;;;;;;4900397;29;20100;-75
2021/03/16 07:39:18;;;;;;;8.20;1.73;;;17.00;57.30;;;;;;4899686;29;20044;-75
2021/03/16 07:41:44;;;;;;;13.35;2.15;;;16.90;57.30;;;;;;4896501;29;20064;-76
2021/03/16 07:44:13;;;;;;;8.48;1.38;;;16.80;57.30;;;;;;4900574;29;20048;-75
2021/03/16 07:46:49;;;;;;;9.52;1.65;;;16.80;57.10;;;;;;4899968;29;20452;-74
2021/03/16 07:49:27;;;;;;;10.10;1.73;;;16.90;57.10;;;;;;4900409;29;20071;-78
2021/03/16 07:51:53;;;;;;;11.05;2.30;;;16.90;57.10;;;;;;4900668;29;20044;-75
2021/03/16 07:54:21;;;;;;;8.68;1.55;;;17.00;57.00;;;;;;4900317;29;20123;-77
2021/03/16 07:57:09;;;;;;;10.35;1.85;;;17.00;56.80;;;;;;4881346;29;20140;-78
2021/03/16 08:00:05;;;;;;;9.25;1.40;;;17.10;56.60;;;;;;4898954;29;20041;-77
2021/03/16 08:03:06;;;;;;;12.93;2.00;;;17.20;56.90;;;;;;4886977;29;20045;-76
2021/03/16 08:05:51;;;;;;;15.02;2.20;;;17.20;57.00;;;;;;4895299;29;20032;-76
2021/03/16 08:08:19;;;;;;;12.57;2.47;;;17.20;56.70;;;;;;4883614;29;20041;-81
2021/03/16 08:10:45;;;;;;;89.18;5.28;;;17.20;56.70;;;;;;4900042;29;20388;-76
2021/03/16 08:13:18;;;;;;;16.10;2.47;;;17.20;57.30;;;;;;4899861;29;20055;-78
2021/03/16 08:15:49;;;;;;;21.00;2.38;;;17.20;56.70;;;;;;4897834;29;20375;-80
2021/03/16 08:18:28;;;;;;;18.98;3.08;;;17.20;57.10;;;;;;4899874;29;20167;-79
2021/03/16 08:21:12;;;;;;;21.88;3.05;;;17.20;56.80;;;;;;4900511;29;20041;-77
2021/03/16 08:23:39;;;;;;;;;;;17.00;56.00;;;;;;4900837;29;20041;-77
2021/03/16 08:26:06;;;;;;;13.00;2.35;;;17.00;56.30;;;;;;4897479;29;20358;-77
2021/03/16 08:28:33;;;;;;;14.63;2.38;;;16.80;55.30;;;;;;4899693;29;20075;-77
2021/03/16 08:30:59;;;;;;;13.45;1.88;;;16.70;55.30;;;;;;4895382;29;20064;-82
2021/03/16 08:33:30;;;;;;;19.92;2.72;;;16.70;55.20;;;;;;4888187;29;20024;-82
2021/03/16 08:39:34;;;;;;;15.13;1.90;;;16.40;52.40;;;;;;4880604;29;20044;-77
2021/03/16 08:46:30;;;;;;;;;;;;;;;;;;;;;
2021/03/16 08:49:41;;;;;;;;;;;;;;;;;;;;;
2021/03/16 08:53:13;;;;;;;;;;;;;;;;;;;;;
2021/03/16 08:56:33;;;;;;;12.35;1.90;;;14.70;52.60;;;;;;4842068;29;20042;-78
2021/03/16 08:59:17;;;;;;;14.20;2.42;;;14.40;52.80;;;;;;4841877;29;20057;-80
2021/03/16 09:01:53;;;;;;;6.82;1.55;;;14.30;53.50;;;;;;4842267;29;20038;-79
2021/03/16 09:04:21;;;;;;;16.70;2.45;;;14.30;53.10;;;;;;4859894;29;20049;-81
2021/03/16 09:06:50;;;;;;;12.90;1.92;;;14.10;53.10;;;;;;4879829;29;20044;-72
2021/03/16 09:09:27;;;;;;;9.15;1.85;;;14.10;53.10;;;;;;4880927;29;20073;-78
2021/03/16 09:11:54;;;;;;;11.32;2.08;;;14.00;53.20;;;;;;4881361;29;20044;-75
2021/03/16 09:14:21;;;;;;;13.07;2.03;;;13.90;53.20;;;;;;4881015;29;20045;-76
2021/03/16 09:16:54;;;;;;;12.13;2.42;;;13.90;53.80;;;;;;4880100;29;20065;-75
2021/03/16 09:19:26;;;;;;;;;;;13.90;54.80;;;;;;4881527;29;20064;-73
2021/03/16 09:22:01;;;;;;;7.03;1.45;;;14.10;55.20;;;;;;4880826;29;19920;-77
2021/03/16 09:24:32;;;;;;;8.70;2.00;;;14.30;54.80;;;;;;4885886;29;20049;-81
2021/03/16 09:27:06;;;;;;;11.55;1.60;;;14.50;54.90;;;;;;4896252;29;20060;-78
2021/03/16 09:29:37;;;;;;;11.75;1.65;;;14.80;55.90;;;;;;4866396;29;20045;-79
2021/03/16 09:32:06;;;;;;;11.13;1.52;;;15.10;56.10;;;;;;4900811;29;20040;-77
2021/03/16 09:34:35;;;;;;;12.30;1.70;;;15.30;56.30;;;;;;4896993;29;20028;-77
2021/03/16 09:37:09;;;;;;;17.27;2.35;;;15.50;56.50;;;;;;4889999;29;20433;-78
2021/03/16 09:39:36;;;;;;;10.07;1.67;;;15.70;56.20;;;;;;4900600;29;20040;-78
2021/03/16 09:42:04;;;;;;;10.25;2.10;;;15.80;56.20;;;;;;4901298;29;20044;-76
2021/03/16 09:44:43;;;;;;;10.30;2.03;;;15.90;56.10;;;;;;4903160;29;20347;-76
2021/03/16 09:47:10;;;;;;;12.27;1.80;;;16.00;56.10;;;;;;4893949;29;20053;-74
2021/03/16 09:49:41;;;;;;;10.77;1.88;;;16.00;55.90;;;;;;4883794;29;20132;-74
2021/03/16 09:52:11;;;;;;;18.02;2.70;;;16.00;56.00;;;;;;4895124;29;20082;-75
2021/03/16 09:54:45;;;;;;;8.90;1.90;;;16.00;56.50;;;;;;4901852;29;20401;-79
2021/03/16 09:57:13;;;;;;;12.95;2.13;;;16.00;55.90;;;;;;4887631;29;20075;-79
2021/03/16 09:59:41;;;;;;;21.25;2.45;;;16.00;55.90;;;;;;4883520;29;20064;-79
2021/03/16 10:02:08;;;;;;;14.05;2.65;;;16.00;55.80;;;;;;4891175;29;20033;-80
2021/03/16 10:04:50;;;;;;;19.38;2.50;;;16.00;55.60;;;;;;4883750;29;20041;-80
2021/03/16 10:07:35;;;;;;;15.55;2.40;;;16.10;55.60;;;;;;4895400;29;20108;-80
2021/03/16 10:10:10;;;;;;;12.98;2.65;;;16.20;55.80;;;;;;4883418;29;20064;-80
2021/03/16 10:12:36;;;;;;;16.80;2.28;;;16.20;55.70;;;;;;4896329;29;20036;-79
2021/03/16 10:15:04;;;;;;;11.43;2.38;;;16.20;55.70;;;;;;4883766;29;20069;-81
2021/03/16 10:17:32;;;;;;;21.65;2.83;;;16.20;55.70;;;;;;4900404;29;20033;-80
2021/03/16 10:20:06;;;;;;;12.60;2.20;;;16.20;55.70;;;;;;4902432;29;20112;-81
2021/03/16 10:22:34;;;;;;;9.48;1.90;;;16.30;55.90;;;;;;4889798;29;20099;-80
2021/03/16 10:25:02;;;;;;;9.00;1.48;;;16.30;55.90;;;;;;4883961;29;20345;-81
2021/03/16 10:27:32;;;;;;;11.07;1.98;;;16.30;55.90;;;;;;4897484;29;20032;-81
2021/03/16 10:30:11;;;;;;;8.75;1.90;;;16.30;55.90;;;;;;4900723;29;20056;-80
2021/03/16 10:32:39;;;;;;;12.07;1.42;;;16.40;55.90;;;;;;4901301;29;20044;-79
2021/03/16 10:35:06;;;;;;;12.82;2.00;;;16.50;55.90;;;;;;4901640;29;20032;-83
2021/03/16 10:37:32;;;;;;;8.70;1.48;;;16.50;55.80;;;;;;4888823;29;20033;-82
2021/03/16 10:39:59;;;;;;;9.32;1.90;;;16.60;55.90;;;;;;4867065;29;20055;-83
2021/03/16 10:42:28;;;;;;;9.55;1.65;;;16.70;55.60;;;;;;4866154;29;20113;-86
2021/03/16 10:44:54;;;;;;;13.65;1.95;;;16.70;55.50;;;;;;4882436;29;20059;-75
2021/03/16 10:47:20;;;;;;;15.32;1.90;;;16.70;55.50;;;;;;4884000;29;20037;-75
2021/03/16 10:49:45;;;;;;;13.30;1.85;;;16.80;55.60;;;;;;4882793;29;20400;-75
2021/03/16 10:52:12;;;;;;;12.48;1.63;;;16.80;55.50;;;;;;4882644;29;20040;-74
2021/03/16 10:54:39;;;;;;;11.07;1.50;;;16.80;55.60;;;;;;4884278;29;20329;-77
2021/03/16 10:57:05;;;;;;;11.18;1.98;;;16.90;55.50;;;;;;4881864;29;20052;-76
2021/03/16 10:59:31;;;;;;;19.85;1.95;;;16.90;55.60;;;;;;4882787;29;20441;-75
2021/03/16 11:01:57;;;;;;;17.25;2.33;;;16.90;55.50;;;;;;4883089;29;20056;-76
2021/03/16 11:04:22;;;;;;;17.75;2.08;;;16.90;55.50;;;;;;4898479;29;20395;-77
2021/03/16 11:06:48;;;;;;;15.82;2.25;;;16.80;55.50;;;;;;4886390;29;20045;-76
2021/03/16 11:09:15;;;;;;;11.25;1.70;;;16.80;55.60;;;;;;4882619;29;20349;-76
2021/03/16 11:11:41;;;;;;;11.82;1.33;;;16.80;55.60;;;;;;4882834;29;20113;-77
2021/03/16 11:14:08;;;;;;;12.00;1.60;;;16.70;55.40;;;;;;4882496;29;20036;-76
2021/03/16 11:16:34;;;;;;;10.98;1.25;;;16.70;55.30;;;;;;4883577;29;20352;-77
2021/03/16 11:19:00;;;;;;;12.70;2.40;;;16.70;55.40;;;;;;4882528;29;20049;-76
2021/03/16 11:21:27;;;;;;;9.73;1.40;;;16.70;55.30;;;;;;4882618;29;20069;-76
2021/03/16 11:23:53;;;;;;;10.57;1.38;;;16.70;55.50;;;;;;4882521;29;20083;-76
2021/03/16 11:26:19;;;;;;;7.43;1.50;;;16.60;55.50;;;;;;4883546;29;20119;-75
2021/03/16 11:28:45;;;;;;;6.65;1.17;;;16.60;55.40;;;;;;4883622;29;20044;-76
2021/03/16 11:31:11;;;;;;;9.48;1.25;;;16.60;55.50;;;;;;4894368;29;20053;-76
2021/03/16 11:33:37;;;;;;;5.90;1.27;;;16.60;55.50;;;;;;4892294;29;20329;-77
2021/03/16 11:36:03;;;;;;;7.47;1.25;;;16.50;55.60;;;;;;4888682;29;20071;-76
2021/03/16 11:38:29;;;;;;;6.13;1.35;;;16.50;55.50;;;;;;4882501;29;20081;-75
2021/03/16 11:40:55;;;;;;;10.35;1.17;;;16.50;55.50;;;;;;4883152;29;20052;-76
2021/03/16 11:43:22;;;;;;;5.75;1.05;;;16.50;56.70;;;;;;4881807;29;20033;-75
2021/03/16 11:45:48;;;;;;;10.80;1.13;;;16.40;55.70;;;;;;4888281;29;20096;-75
2021/03/16 11:48:14;;;;;;;8.23;1.15;;;16.50;55.80;;;;;;4896425;29;20041;-76
2021/03/16 11:50:40;;;;;;;5.63;1.00;;;16.40;55.70;;;;;;4865593;29;20049;-76
2021/03/16 11:53:06;;;;;;;8.00;1.48;;;16.50;56.10;;;;;;4882228;29;20109;-76
2021/03/16 11:55:33;;;;;;;6.78;1.02;;;16.40;56.00;;;;;;4883302;29;20052;-76
2021/03/16 11:57:59;;;;;;;7.45;1.10;;;16.40;56.10;;;;;;4881608;29;20061;-76
2021/03/16 12:00:25;;;;;;;5.82;1.48;;;16.40;56.10;;;;;;4883842;29;20041;-76
2021/03/16 12:02:51;;;;;;;6.68;2.00;;;16.40;56.30;;;;;;4898787;29;20138;-75
2021/03/16 12:05:17;;;;;;;6.30;0.90;;;16.30;55.70;;;;;;4898407;29;20048;-79
2021/03/16 12:07:42;;;;;;;12.77;1.80;;;16.30;55.70;;;;;;4906941;29;20506;-79
2021/03/16 12:10:10;;;;;;;13.95;2.22;;;16.30;54.20;;;;;;4905313;29;20071;-82
2021/03/16 12:12:36;;;;;;;12.50;1.42;;;16.10;52.60;;;;;;4906957;29;20044;-79
2021/03/16 12:15:15;;;;;;;15.18;2.20;;;15.80;51.90;;;;;;4900748;29;20123;-81
2021/03/16 12:17:41;;;;;;;23.65;2.15;;;15.60;52.40;;;;;;4882892;29;20041;-79
2021/03/16 12:20:07;;;;;;;13.77;1.90;;;15.50;53.50;;;;;;4890108;29;20407;-80
2021/03/16 12:22:34;;;;;;;12.85;1.40;;;15.50;54.30;;;;;;4899620;29;20117;-79
2021/03/16 12:24:59;;;;;;;11.30;1.50;;;15.50;54.90;;;;;;4899926;29;20041;-78
2021/03/16 12:27:25;;;;;;;9.85;1.63;;;15.50;53.30;;;;;;4900024;29;20056;-79
2021/03/16 12:29:51;;;;;;;10.48;1.85;;;15.40;52.00;;;;;;4883427;29;20116;-79
2021/03/16 12:32:17;;;;;;;8.90;1.63;;;15.20;51.30;;;;;;4898831;29;20040;-79
2021/03/16 12:34:43;;;;;;;7.93;1.17;;;15.10;51.00;;;;;;4899142;29;20044;-80
2021/03/16 12:37:09;;;;;;;7.82;1.40;;;14.90;51.40;;;;;;4899759;29;20060;-81
2021/03/16 12:39:36;;;;;;;12.00;1.60;;;14.80;51.50;;;;;;4899588;29;20052;-79
2021/03/16 12:42:03;;;;;;;9.27;1.65;;;14.60;51.70;;;;;;4892191;29;20057;-78
2021/03/16 12:44:32;;;;;;;9.63;1.67;;;14.50;51.80;;;;;;4897326;29;20377;-77
2021/03/16 12:46:59;;;;;;;10.48;1.80;;;14.40;51.70;;;;;;4890316;29;20045;-77
2021/03/16 12:49:25;;;;;;;7.68;1.50;;;14.40;51.80;;;;;;4899548;29;20184;-78
2021/03/16 12:51:50;;;;;;;13.30;2.40;;;14.30;52.70;;;;;;4899721;29;20076;-78
2021/03/16 12:54:16;;;;;;;11.00;1.88;;;14.30;53.60;;;;;;4899798;29;20055;-78
2021/03/16 12:56:42;;;;;;;7.72;1.58;;;14.40;53.70;;;;;;4897887;29;20055;-74
2021/03/16 12:59:08;;;;;;;9.27;1.85;;;14.50;53.60;;;;;;4898349;29;20487;-76
2021/03/16 13:01:34;;;;;;;9.18;1.55;;;14.70;53.60;;;;;;4901702;29;20051;-76